Time;durP1;ratioP1;P1;durP2;ratioP2;P2;SDS_P1;SDS_P2;PMS_P1;PMS_P2;Temp;Humidity;BMP_temperature;BMP_pressure;BME280_temperature;BME280_humidity;BME280_pressure;Samples;Min_cycle;Max_cycle;Signal;HPM_P1;HPM_P2
2023/09/08 00:01:02;;;;;;;6.10;3.20;;;;;;;12.65;80.35;101315.71;88460;281;137456;-59
2023/09/08 00:03:06;;;;;;;7.90;4.10;;;;;;;12.66;80.35;101312.89;88613;277;24206;-61
2023/09/08 00:05:08;;;;;;;6.20;4.50;;;;;;;12.67;80.14;101317.96;88409;281;137191;-58
2023/09/08 00:07:10;;;;;;;8.40;3.90;;;;;;;12.66;80.14;101317.91;88612;278;22611;-59
2023/09/08 00:09:12;;;;;;;6.20;3.70;;;;;;;12.63;80.48;101320.94;88386;278;138398;-60
2023/09/08 00:11:14;;;;;;;7.00;3.80;;;;;;;12.56;81.21;101320.62;88509;278;22538;-60
2023/09/08 00:13:15;;;;;;;10.50;4.10;;;;;;;12.51;81.84;101324.80;88491;274;137523;-58
2023/09/08 00:15:19;;;;;;;4.40;3.70;;;;;;;12.50;82.19;101328.27;88598;274;22521;-59
2023/09/08 00:17:21;;;;;;;9.50;4.30;;;;;;;12.61;81.80;101327.70;88438;274;136352;-58
2023/09/08 00:19:26;;;;;;;8.80;3.90;;;;;;;12.66;81.02;101328.27;87932;282;769259;-59
2023/09/08 00:21:27;;;;;;;6.50;3.90;;;;;;;12.62;80.31;101322.95;88343;281;136515;-60
2023/09/08 00:23:29;;;;;;;6.50;4.00;;;;;;;12.62;80.20;101321.78;88516;281;22536;-58
2023/09/08 00:25:31;;;;;;;7.00;3.90;;;;;;;12.59;80.04;101325.45;88314;279;136359;-59
2023/09/08 00:27:33;;;;;;;5.40;3.90;;;;;;;12.54;80.82;101323.94;88494;273;24056;-57
2023/09/08 00:29:34;;;;;;;6.40;4.10;;;;;;;12.53;80.86;101325.33;88342;279;137079;-58
2023/09/08 00:31:37;;;;;;;7.20;4.00;;;;;;;12.52;80.77;101325.95;88251;283;22560;-56
2023/09/08 00:33:39;;;;;;;9.90;4.60;;;;;;;12.45;81.10;101323.30;88430;279;137042;-60
2023/09/08 00:35:45;;;;;;;4.70;3.90;;;;;;;12.42;81.11;101324.05;88631;281;22621;-60
2023/09/08 00:37:46;;;;;;;5.40;3.70;;;;;;;12.34;81.47;101325.34;88285;283;136941;-58
2023/09/08 00:39:48;;;;;;;7.90;4.60;;;;;;;12.32;81.44;101319.33;88413;283;25357;-57
2023/09/08 00:41:50;;;;;;;6.50;3.80;;;;;;;12.27;81.70;101316.86;88500;274;137170;-59
2023/09/08 00:43:52;;;;;;;7.80;4.00;;;;;;;12.35;81.39;101317.73;88649;274;25192;-60
2023/09/08 00:45:56;;;;;;;7.50;4.40;;;;;;;12.35;81.32;101315.77;88460;281;137332;-59
2023/09/08 00:47:58;;;;;;;10.30;5.60;;;;;;;12.32;81.71;101317.52;88591;281;24057;-58
2023/09/08 00:50:02;;;;;;;5.60;4.10;;;;;;;12.30;82.07;101318.38;88473;282;136478;-56
2023/09/08 00:52:05;;;;;;;10.60;4.90;;;;;;;12.28;81.95;101314.60;88533;281;137451;-56
2023/09/08 00:54:07;;;;;;;8.60;3.80;;;;;;;12.29;81.82;101313.46;88551;279;25409;-56
2023/09/08 00:56:10;;;;;;;7.50;4.70;;;;;;;12.32;81.94;101314.71;88543;278;137424;-59
2023/09/08 00:58:14;;;;;;;8.50;4.90;;;;;;;12.24;82.20;101317.30;88550;278;22613;-59
2023/09/08 01:00:16;;;;;;;8.60;4.30;;;;;;;12.20;82.35;101318.52;88338;277;137224;-58
2023/09/08 01:02:18;;;;;;;10.90;4.80;;;;;;;12.17;82.45;101318.88;88492;282;23705;-62
2023/09/08 01:04:22;;;;;;;6.80;4.60;;;;;;;12.13;82.67;101320.94;88479;275;138699;-59
2023/09/08 01:06:24;;;;;;;8.50;4.50;;;;;;;12.10;83.13;101314.17;88509;278;22600;-60
2023/09/08 01:08:26;;;;;;;10.40;4.50;;;;;;;12.09;83.20;101316.00;88507;282;136838;-58
2023/09/08 01:10:29;;;;;;;6.80;4.40;;;;;;;12.11;83.52;101316.92;88687;278;22526;-59
2023/09/08 01:12:31;;;;;;;5.60;4.40;;;;;;;12.13;83.46;101316.12;88455;281;137592;-58
2023/09/08 01:14:32;;;;;;;10.70;5.30;;;;;;;12.11;83.29;101317.44;88639;282;23906;-58
2023/09/08 01:16:34;;;;;;;11.90;5.00;;;;;;;12.07;83.35;101316.45;88380;275;136221;-60
2023/09/08 01:18:37;;;;;;;6.30;4.90;;;;;;;12.01;83.57;101316.77;88644;277;22616;-59
2023/09/08 01:21:01;;;;;;;9.10;6.00;;;;;;;11.96;84.20;101313.66;88530;274;138021;-56
2023/09/08 01:23:18;;;;;;;6.10;4.90;;;;;;;11.85;84.72;101309.79;88414;279;25300;-58
2023/09/08 01:25:24;;;;;;;6.40;4.40;;;;;;;11.79;85.53;101319.70;88390;282;136891;-58
2023/09/08 01:27:29;;;;;;;6.00;4.20;;;;;;;11.81;86.06;101322.80;88519;275;25322;-59
2023/09/08 01:29:32;;;;;;;12.20;4.60;;;;;;;11.81;86.42;101325.52;88459;275;138780;-59
2023/09/08 01:31:35;;;;;;;6.90;4.50;;;;;;;11.98;85.50;101325.17;88424;283;22545;-58
2023/09/08 01:33:37;;;;;;;7.00;4.90;;;;;;;12.00;85.05;101324.77;88444;278;136691;-57
2023/09/08 01:35:39;;;;;;;9.00;4.60;;;;;;;11.98;85.38;101326.16;88548;277;22639;-59
2023/09/08 01:37:46;;;;;;;8.90;4.40;;;;;;;11.98;85.65;101325.64;88450;281;137098;-58
2023/09/08 01:39:47;;;;;;;8.80;4.40;;;;;;;11.97;85.25;101328.07;88570;282;25191;-54
2023/09/08 01:41:49;;;;;;;8.60;4.80;;;;;;;11.96;85.39;101329.86;88283;278;137074;-60
2023/09/08 01:43:51;;;;;;;9.30;4.30;;;;;;;11.95;85.25;101329.89;88447;283;22542;-62
2023/09/08 01:45:52;;;;;;;6.50;4.40;;;;;;;11.95;85.17;101327.42;88223;283;137998;-60
2023/09/08 01:47:54;;;;;;;4.50;3.60;;;;;;;11.92;85.44;101329.77;88407;283;25169;-58
2023/09/08 01:49:56;;;;;;;5.20;3.70;;;;;;;11.93;86.15;101327.36;88411;283;137087;-60
2023/09/08 01:51:59;;;;;;;9.30;4.00;;;;;;;11.95;85.95;101325.31;88640;281;22536;-62
2023/09/08 01:54:01;;;;;;;11.30;3.90;;;;;;;11.95;85.78;101324.88;88553;281;138009;-59
2023/09/08 01:56:03;;;;;;;7.00;4.30;;;;;;;11.91;85.76;101323.49;88517;282;137481;-59
2023/09/08 01:58:08;;;;;;;7.30;4.00;;;;;;;11.92;85.82;101321.73;88574;278;22535;-62
2023/09/08 02:00:11;;;;;;;3.80;2.80;;;;;;;11.91;85.92;101319.33;88309;276;136902;-61
2023/09/08 02:02:14;;;;;;;6.10;4.30;;;;;;;11.89;86.29;101316.52;88515;278;25115;-58
2023/09/08 02:04:16;;;;;;;10.70;4.40;;;;;;;11.91;86.52;101312.37;88438;273;138607;-60
2023/09/08 02:06:19;;;;;;;5.60;3.80;;;;;;;11.93;86.05;101308.80;88229;276;25124;-57
2023/09/08 02:08:21;;;;;;;6.70;4.60;;;;;;;11.93;85.65;101308.66;88343;273;137059;-60
2023/09/08 02:10:23;;;;;;;4.90;3.80;;;;;;;11.91;85.44;101309.00;88455;283;22628;-59
2023/09/08 02:12:24;;;;;;;8.20;3.70;;;;;;;11.90;85.52;101311.27;88522;278;136982;-59
2023/09/08 02:14:27;;;;;;;4.60;3.30;;;;;;;11.87;85.69;101308.45;88410;280;25297;-67
2023/09/08 02:16:29;;;;;;;6.60;4.00;;;;;;;11.86;85.59;101306.69;88532;274;137781;-70
2023/09/08 02:18:31;;;;;;;8.40;4.10;;;;;;;11.84;85.75;101305.46;88456;273;22534;-70
2023/09/08 02:20:36;;;;;;;9.80;4.20;;;;;;;11.81;85.75;101305.58;88405;282;138354;-69
2023/09/08 02:22:40;;;;;;;4.90;3.80;;;;;;;11.80;85.78;101305.41;88326;281;26136;-68
2023/09/08 02:24:41;;;;;;;4.20;3.50;;;;;;;11.79;86.19;101305.52;88213;280;137086;-69
2023/09/08 02:26:44;;;;;;;9.00;4.30;;;;;;;11.79;86.34;101302.11;88484;282;25459;-70
2023/09/08 02:28:47;;;;;;;5.90;4.30;;;;;;;11.79;86.11;101301.73;88426;274;137826;-70
2023/09/08 02:30:50;;;;;;;7.90;4.10;;;;;;;11.78;86.00;101303.64;89234;281;22658;-71
2023/09/08 02:32:52;;;;;;;7.80;3.90;;;;;;;11.76;86.05;101301.62;88416;281;137026;-70
2023/09/08 02:34:55;;;;;;;6.90;4.60;;;;;;;11.74;86.08;101301.05;88438;276;25213;-70
2023/09/08 02:36:57;;;;;;;7.50;4.40;;;;;;;11.74;85.88;101300.95;88436;282;137065;-68
2023/09/08 02:38:59;;;;;;;10.40;3.70;;;;;;;11.71;85.91;101304.57;88563;273;23705;-69
2023/09/08 02:41:02;;;;;;;8.20;4.50;;;;;;;11.69;85.95;101302.67;88270;275;136788;-70
2023/09/08 02:43:04;;;;;;;6.40;3.70;;;;;;;11.66;86.11;101301.08;88455;281;22554;-68
2023/09/08 02:45:08;;;;;;;5.90;4.40;;;;;;;11.62;86.54;101300.26;88283;281;137030;-69
2023/09/08 02:47:10;;;;;;;5.30;4.20;;;;;;;11.59;86.70;101296.38;88504;280;22715;-71
2023/09/08 02:49:12;;;;;;;7.00;4.40;;;;;;;11.42;87.59;101299.08;88365;282;136862;-70
2023/09/08 02:51:14;;;;;;;6.90;3.90;;;;;;;11.39;88.29;101300.35;88639;281;22520;-68
2023/09/08 02:53:16;;;;;;;9.00;4.60;;;;;;;11.41;88.32;101296.01;88371;282;136981;-68
2023/09/08 02:55:17;;;;;;;9.70;4.60;;;;;;;11.48;88.00;101295.09;88440;283;26318;-72
2023/09/08 02:57:21;;;;;;;8.60;4.90;;;;;;;11.41;88.44;101298.17;88271;283;137063;-72
2023/09/08 02:59:23;;;;;;;7.70;4.70;;;;;;;11.37;88.71;101299.49;88463;283;22556;-69
2023/09/08 03:01:24;;;;;;;6.80;5.20;;;;;;;11.38;88.88;101299.41;88314;282;137748;-69
2023/09/08 03:03:27;;;;;;;8.30;4.00;;;;;;;11.38;88.96;101299.92;88414;282;22532;-70
2023/09/08 03:05:29;;;;;;;10.50;4.10;;;;;;;11.49;88.88;101301.70;88194;283;136686;-69
2023/09/08 03:07:33;;;;;;;6.60;4.70;;;;;;;11.41;89.12;101301.34;88528;281;22531;-68
2023/09/08 03:09:35;;;;;;;7.10;4.80;;;;;;;11.41;89.28;101298.74;88275;280;137316;-68
2023/09/08 03:11:39;;;;;;;6.10;4.70;;;;;;;11.42;89.28;101297.84;88356;280;25206;-68
2023/09/08 03:13:41;;;;;;;9.80;5.70;;;;;;;11.42;89.33;101296.14;88383;282;137162;-70
2023/09/08 03:15:44;;;;;;;14.60;6.70;;;;;;;11.41;89.70;101293.70;88677;281;22702;-68
2023/09/08 03:17:45;;;;;;;10.80;5.10;;;;;;;11.44;89.91;101288.96;88379;281;137039;-71
2023/09/08 03:19:47;;;;;;;13.90;6.20;;;;;;;11.41;90.25;101288.52;88489;281;23755;-69
2023/09/08 03:21:49;;;;;;;9.00;4.80;;;;;;;11.41;90.08;101296.83;88301;275;137607;-69
2023/09/08 03:23:51;;;;;;;10.60;5.30;;;;;;;11.40;89.82;101299.11;88529;282;22545;-66
2023/09/08 03:25:53;;;;;;;13.90;5.60;;;;;;;11.37;90.01;101298.45;88378;276;137302;-70
2023/09/08 03:27:55;;;;;;;9.40;5.30;;;;;;;11.35;90.12;101304.66;88455;275;26477;-69
2023/09/08 03:29:59;;;;;;;9.90;5.60;;;;;;;11.35;90.25;101305.42;88411;281;137338;-71
2023/09/08 03:32:01;;;;;;;11.40;5.10;;;;;;;11.34;90.29;101306.23;88364;280;25208;-71
2023/09/08 03:34:04;;;;;;;12.20;4.80;;;;;;;11.34;90.42;101309.30;88658;273;22951;-70
2023/09/08 03:36:06;;;;;;;7.30;5.20;;;;;;;11.32;90.70;101306.98;88473;277;138045;-69
2023/09/08 03:38:08;;;;;;;11.20;5.10;;;;;;;11.31;90.97;101308.53;88965;274;22537;-64
2023/09/08 03:40:10;;;;;;;8.50;4.80;;;;;;;11.32;91.08;101305.88;88674;283;137079;-66
2023/09/08 03:42:13;;;;;;;9.70;4.20;;;;;;;11.43;91.27;101306.31;88459;276;24034;-70
2023/09/08 03:44:15;;;;;;;7.80;4.90;;;;;;;11.68;90.20;101304.09;88529;278;137132;-67
2023/09/08 03:46:17;;;;;;;9.70;5.20;;;;;;;11.80;90.54;101298.63;88542;278;25612;-70
2023/09/08 03:48:20;;;;;;;5.60;4.30;;;;;;;11.98;89.91;101295.88;88310;276;137235;-71
2023/09/08 03:50:22;;;;;;;9.20;4.80;;;;;;;12.16;89.36;101295.79;88544;274;25160;-70
2023/09/08 03:52:25;;;;;;;11.20;4.50;;;;;;;12.36;88.81;101292.13;88272;276;138132;-67
2023/09/08 03:54:27;;;;;;;9.10;5.80;;;;;;;12.61;88.72;101287.82;88590;274;25197;-69
2023/09/08 03:56:29;;;;;;;9.80;5.20;;;;;;;12.91;88.16;101285.54;88467;281;137176;-68
2023/09/08 03:58:31;;;;;;;10.40;5.40;;;;;;;13.32;86.72;101286.23;88410;273;24027;-68
2023/09/08 04:00:34;;;;;;;16.00;6.10;;;;;;;13.72;84.36;101282.36;88254;279;136588;-69
2023/09/08 04:02:36;;;;;;;6.50;4.90;;;;;;;14.14;82.22;101279.41;88433;274;24784;-67
2023/09/08 04:04:38;;;;;;;7.40;5.00;;;;;;;14.59;80.19;101278.13;88133;279;137360;-70
2023/09/08 04:06:42;;;;;;;7.20;4.60;;;;;;;15.05;77.62;101279.57;88366;276;22326;-66
2023/09/08 04:08:44;;;;;;;7.60;4.80;;;;;;;15.48;75.02;101278.90;88522;273;136312;-67
2023/09/08 04:10:47;;;;;;;11.10;5.00;;;;;;;15.91;73.21;101279.73;88397;274;25213;-71
2023/09/08 04:12:48;;;;;;;7.30;4.80;;;;;;;16.33;71.30;101278.42;88638;274;136499;-66
2023/09/08 04:14:50;;;;;;;11.50;5.30;;;;;;;16.75;69.35;101282.40;88529;275;25080;-70
2023/09/08 04:16:53;;;;;;;9.40;4.80;;;;;;;17.15;67.56;101286.67;88312;273;136368;-69
2023/09/08 04:21:23;;;;;;;6.30;4.70;;;;;;;17.93;64.30;101283.64;86473;308;602198;-73
2023/09/08 04:23:28;;;;;;;7.40;5.10;;;;;;;18.31;62.55;101284.36;87868;291;24088;-65
2023/09/08 04:25:31;;;;;;;8.60;4.90;;;;;;;18.74;60.78;101284.77;87535;288;135297;-75
2023/09/08 04:27:36;;;;;;;8.90;4.00;;;;;;;19.23;58.86;101285.73;87473;295;24224;-68
2023/09/08 04:29:38;;;;;;;8.90;4.30;;;;;;;19.73;56.70;101280.42;87474;293;135335;-68
2023/09/08 04:31:40;;;;;;;10.50;5.00;;;;;;;20.19;54.67;101276.48;87791;293;25274;-69
2023/09/08 04:33:42;;;;;;;10.00;4.20;;;;;;;20.57;53.48;101271.49;87437;290;135668;-70
2023/09/08 04:35:44;;;;;;;5.40;4.00;;;;;;;20.87;52.48;101272.86;87123;289;641189;-75
2023/09/08 04:37:45;;;;;;;7.60;4.20;;;;;;;21.14;51.29;101276.69;87520;289;136478;-67
2023/09/08 04:39:47;;;;;;;11.50;4.50;;;;;;;21.36;50.57;101276.21;87660;288;24218;-70
2023/09/08 04:41:49;;;;;;;8.30;4.00;;;;;;;21.60;49.88;101277.73;87577;290;135918;-67
2023/09/08 04:43:51;;;;;;;10.40;4.10;;;;;;;21.89;49.54;101280.73;87817;290;25093;-66
2023/09/08 04:45:53;;;;;;;7.70;4.50;;;;;;;22.23;48.16;101279.11;87650;287;136003;-72
2023/09/08 04:47:55;;;;;;;10.00;4.50;;;;;;;22.56;47.29;101275.27;87968;291;22712;-70
2023/09/08 04:49:57;;;;;;;7.70;3.80;;;;;;;22.80;46.58;101275.70;87967;285;137099;-71
2023/09/08 04:51:59;;;;;;;10.30;4.30;;;;;;;23.02;45.43;101273.77;87907;288;25153;-73
2023/09/08 04:54:02;;;;;;;4.30;3.50;;;;;;;23.15;44.96;101274.04;89874;282;137277;-69
2023/09/08 04:56:05;;;;;;;6.70;3.40;;;;;;;23.19;44.64;101272.69;87824;282;137806;-69
2023/09/08 04:58:06;;;;;;;4.70;3.70;;;;;;;22.99;45.23;101271.61;88016;283;25680;-81
2023/09/08 05:00:09;;;;;;;7.10;3.70;;;;;;;22.77;45.73;101272.94;87841;283;136870;-70
2023/09/08 05:02:11;;;;;;;6.50;3.90;;;;;;;22.48;46.41;101270.12;88197;281;22500;-69
2023/09/08 05:04:12;;;;;;;9.40;3.50;;;;;;;22.33;47.41;101268.66;88124;282;136125;-72
2023/09/08 05:06:15;;;;;;;7.20;3.60;;;;;;;22.37;47.35;101268.36;88162;281;22556;-69
2023/09/08 05:08:17;;;;;;;8.30;3.50;;;;;;;22.60;46.72;101268.86;88170;281;136431;-66
2023/09/08 05:10:19;;;;;;;5.90;4.50;;;;;;;22.77;46.48;101271.36;88101;280;23707;-68
2023/09/08 05:12:21;;;;;;;8.60;4.90;;;;;;;23.02;46.08;101269.75;88089;286;137451;-73
2023/09/08 05:14:24;;;;;;;5.40;3.90;;;;;;;23.26;45.40;101266.90;88270;287;22632;-77
2023/09/08 05:16:37;;;;;;;6.10;4.40;;;;;;;23.30;44.89;101265.33;88016;285;137205;-72
2023/09/08 05:18:40;;;;;;;5.30;3.90;;;;;;;23.22;45.03;101261.79;88216;286;23711;-69
2023/09/08 05:20:43;;;;;;;8.10;4.80;;;;;;;23.22;45.11;101264.77;88285;284;136087;-71
2023/09/08 05:22:45;;;;;;;9.10;4.40;;;;;;;23.24;45.01;101265.52;88034;288;22546;-68
2023/09/08 05:24:46;;;;;;;7.90;5.10;;;;;;;23.29;44.32;101264.55;88038;287;136682;-70
2023/09/08 05:26:49;;;;;;;9.40;6.20;;;;;;;23.17;44.22;101258.17;88196;280;22594;-73
2023/09/08 05:28:50;;;;;;;7.40;5.80;;;;;;;23.02;44.41;101259.85;88018;282;137180;-71
2023/09/08 05:30:53;;;;;;;5.50;4.90;;;;;;;22.97;44.39;101255.46;88102;288;22645;-69
2023/09/08 05:32:56;;;;;;;8.20;4.60;;;;;;;22.97;44.16;101249.88;88272;279;135759;-72
2023/09/08 05:34:59;;;;;;;12.00;4.70;;;;;;;23.07;44.17;101248.02;88257;279;22599;-73
2023/09/08 05:37:02;;;;;;;9.10;4.90;;;;;;;23.22;43.73;101246.45;87985;286;136493;-69
2023/09/08 05:39:05;;;;;;;6.40;4.00;;;;;;;23.25;43.41;101244.36;88297;287;25087;-70
2023/09/08 05:41:07;;;;;;;10.90;3.50;;;;;;;23.14;43.41;101242.27;88362;283;135821;-70
2023/09/08 05:43:11;;;;;;;4.70;3.10;;;;;;;23.13;43.52;101242.04;88197;286;22710;-71
2023/09/08 05:45:13;;;;;;;7.00;3.30;;;;;;;23.25;43.53;101245.02;88065;286;137393;-71
2023/09/08 05:47:15;;;;;;;5.60;3.20;;;;;;;23.24;43.47;101243.98;88175;289;24059;-70
2023/09/08 05:49:17;;;;;;;4.50;2.40;;;;;;;23.08;44.17;101243.20;88086;287;136098;-73
2023/09/08 05:51:20;;;;;;;4.00;2.50;;;;;;;23.00;45.22;101241.70;88372;276;22625;-70
2023/09/08 05:53:22;;;;;;;4.40;2.20;;;;;;;23.07;45.44;101243.47;88394;275;136027;-74
2023/09/08 05:55:24;;;;;;;3.70;1.80;;;;;;;23.14;45.57;101247.04;88446;282;22628;-71
2023/09/08 05:57:26;;;;;;;7.10;3.70;;;;;;;23.13;46.04;101247.70;88165;283;137146;-76
2023/09/08 05:59:29;;;;;;;1.30;1.20;;;;;;;23.12;45.90;101248.81;88396;279;22717;-68
2023/09/08 06:01:32;;;;;;;3.40;1.40;;;;;;;23.13;46.26;101250.79;88217;276;137346;-69
2023/09/08 06:03:35;;;;;;;3.80;1.30;;;;;;;23.14;46.23;101244.86;88473;279;22684;-72
2023/09/08 06:05:38;;;;;;;4.00;1.90;;;;;;;22.94;47.03;101245.20;88149;283;135914;-72
2023/09/08 06:07:39;;;;;;;4.70;1.50;;;;;;;22.72;47.73;101243.34;88409;279;25704;-71
2023/09/08 06:09:52;;;;;;;1.80;1.40;;;;;;;22.71;48.05;101244.47;88259;276;135750;-69
2023/09/08 06:11:55;;;;;;;2.20;1.20;;;;;;;22.91;47.70;101242.44;88353;277;24148;-72
2023/09/08 06:13:59;;;;;;;3.70;1.80;;;;;;;23.11;47.39;101237.54;88251;273;137306;-74
2023/09/08 06:16:03;;;;;;;2.50;1.70;;;;;;;23.25;47.03;101238.17;88488;276;139618;-75
2023/09/08 06:18:05;;;;;;;6.40;1.80;;;;;;;23.23;46.98;101237.55;88284;280;24347;-79
2023/09/08 06:20:08;;;;;;;4.30;1.40;;;;;;;23.02;47.79;101241.74;88128;281;135797;-72
2023/09/08 06:22:10;;;;;;;2.20;1.30;;;;;;;22.78;48.69;101237.94;88952;274;22635;-72
2023/09/08 06:24:12;;;;;;;3.40;1.80;;;;;;;22.64;49.18;101239.30;88513;276;137766;-68
2023/09/08 06:26:14;;;;;;;2.00;1.10;;;;;;;22.62;49.45;101236.02;88476;274;24052;-75
2023/09/08 06:28:16;;;;;;;1.60;1.10;;;;;;;22.66;49.52;101231.58;88413;278;137416;-71
2023/09/08 06:30:18;;;;;;;3.10;1.30;;;;;;;22.56;50.03;101235.96;88795;276;22555;-72
2023/09/08 06:32:20;;;;;;;7.40;1.50;;;;;;;22.36;50.91;101233.14;88400;280;136401;-73
2023/09/08 06:34:22;;;;;;;5.00;1.40;;;;;;;22.34;50.98;101231.52;88357;276;22618;-71
2023/09/08 06:36:25;;;;;;;3.20;1.40;;;;;;;22.37;50.57;101230.81;88226;276;135920;-74
2023/09/08 06:38:31;;;;;;;4.50;1.60;;;;;;;22.42;50.32;101229.81;88437;276;22553;-69
2023/09/08 06:40:34;;;;;;;2.70;1.20;;;;;;;22.46;50.45;101226.94;88302;278;136838;-71
2023/09/08 06:42:36;;;;;;;4.70;1.40;;;;;;;22.48;50.77;101226.49;88396;279;24025;-71
2023/09/08 06:44:49;;;;;;;5.20;1.70;;;;;;;22.51;50.58;101226.44;88189;276;135858;-75
2023/09/08 06:46:51;;;;;;;4.50;1.30;;;;;;;22.40;50.56;101217.89;88299;278;25147;-70
2023/09/08 06:48:53;;;;;;;5.50;1.50;;;;;;;22.19;50.91;101213.10;88231;280;135853;-74
2023/09/08 06:50:56;;;;;;;2.50;1.30;;;;;;;21.84;51.16;101202.30;88118;282;24031;-72
2023/09/08 06:53:00;;;;;;;1.80;1.30;;;;;;;21.63;52.05;101212.02;88086;276;135514;-69
2023/09/08 06:55:04;;;;;;;3.80;1.20;;;;;;;21.27;51.99;101213.75;88326;278;23004;-69
2023/09/08 06:57:06;;;;;;;2.20;1.50;;;;;;;20.93;52.91;101213.52;88134;275;137411;-78
2023/09/08 06:59:08;;;;;;;1.10;0.70;;;;;;;20.68;53.36;101216.77;88729;281;22545;-70
2023/09/08 07:01:10;;;;;;;1.70;0.90;;;;;;;20.43;53.77;101213.52;88144;276;138013;-72
2023/09/08 07:03:13;;;;;;;2.20;1.00;;;;;;;20.26;54.99;101214.23;88375;281;23884;-71
2023/09/08 07:05:16;;;;;;;3.60;1.40;;;;;;;20.21;55.45;101215.83;88271;280;135809;-73
2023/09/08 07:07:20;;;;;;;5.10;1.90;;;;;;;20.12;55.64;101215.49;88428;276;22543;-71
2023/09/08 07:09:23;;;;;;;5.60;2.40;;;;;;;20.04;56.74;101213.82;88347;276;137146;-72
2023/09/08 07:11:26;;;;;;;2.40;1.80;;;;;;;19.95;57.37;101214.35;88365;282;22615;-70
2023/09/08 07:13:28;;;;;;;3.50;1.30;;;;;;;19.92;57.29;101215.29;88457;280;136167;-69
2023/09/08 07:15:33;;;;;;;2.50;1.40;;;;;;;19.89;57.65;101211.16;88293;282;22628;-71
2023/09/08 07:17:37;;;;;;;2.70;0.90;;;;;;;19.92;57.47;101209.88;88437;273;135988;-70
2023/09/08 07:19:39;;;;;;;4.40;0.90;;;;;;;19.92;58.06;101208.48;88392;281;22613;-70
2023/09/08 07:21:41;;;;;;;5.60;1.00;;;;;;;19.91;57.76;101209.71;88267;283;136378;-71
2023/09/08 07:23:44;;;;;;;3.30;0.50;;;;;;;19.87;55.33;101210.05;88521;275;23097;-72
2023/09/08 07:25:48;;;;;;;3.60;0.90;;;;;;;19.77;55.91;101205.40;88194;278;137564;-69
2023/09/08 07:27:52;;;;;;;5.00;1.10;;;;;;;19.65;57.04;101202.02;88557;274;22747;-69
2023/09/08 07:29:54;;;;;;;4.00;0.80;;;;;;;19.61;57.39;101202.41;88474;274;136546;-69
2023/09/08 07:31:56;;;;;;;2.80;0.60;;;;;;;19.59;56.66;101204.93;88586;279;24248;-71
2023/09/08 07:33:58;;;;;;;1.10;0.40;;;;;;;19.60;55.88;101203.54;88298;281;135786;-70
2023/09/08 07:36:08;;;;;;;2.80;0.40;;;;;;;19.57;52.89;101208.77;88067;276;22531;-76
2023/09/08 07:38:10;;;;;;;1.80;0.40;;;;;;;19.46;52.43;101190.95;88284;280;22520;-68
2023/09/08 07:40:12;;;;;;;1.30;0.40;;;;;;;19.54;51.53;101204.79;88214;274;136446;-67
2023/09/08 07:42:14;;;;;;;1.20;0.20;;;;;;;19.57;50.40;101199.14;88348;278;24017;-70
2023/09/08 07:44:17;;;;;;;1.20;0.30;;;;;;;19.64;49.96;101197.23;88173;275;136036;-76
2023/09/08 07:46:19;;;;;;;1.70;0.30;;;;;;;19.73;49.75;101196.53;88505;280;22526;-72
2023/09/08 07:48:20;;;;;;;2.30;0.30;;;;;;;19.82;49.63;101193.77;88176;274;136416;-72
2023/09/08 07:50:25;;;;;;;2.20;0.20;;;;;;;19.90;48.37;101190.46;88292;274;26254;-69
2023/09/08 07:52:26;;;;;;;1.10;0.40;;;;;;;19.96;47.24;101192.23;88377;273;137616;-71
2023/09/08 07:54:28;;;;;;;0.40;0.10;;;;;;;20.00;45.74;101187.40;88301;281;22550;-75
2023/09/08 07:56:30;;;;;;;2.80;0.10;;;;;;;20.00;44.24;101178.50;88296;281;136912;-69
2023/09/08 07:58:33;;;;;;;0.80;0.10;;;;;;;20.03;43.49;101184.90;88539;281;22545;-68
2023/09/08 08:00:36;;;;;;;1.60;0.30;;;;;;;20.00;43.17;101184.10;88450;273;136431;-72
2023/09/08 08:02:43;;;;;;;0.70;0.10;;;;;;;19.91;43.05;101170.88;88375;275;22551;-67
2023/09/08 08:04:44;;;;;;;1.30;0.30;;;;;;;19.95;43.19;101180.62;88180;276;136317;-76
2023/09/08 08:06:47;;;;;;;3.70;0.20;;;;;;;19.92;43.27;101174.44;88431;278;22596;-69
2023/09/08 08:08:49;;;;;;;0.70;0.30;;;;;;;19.91;44.04;101173.41;88392;275;137424;-69
2023/09/08 08:10:51;;;;;;;2.30;0.10;;;;;;;19.95;44.52;101171.20;88378;278;22606;-80
2023/09/08 08:12:53;;;;;;;0.40;0.10;;;;;;;20.03;43.49;101170.66;88186;274;136881;-70
2023/09/08 08:14:54;;;;;;;0.20;0.10;;;;;;;20.08;43.63;101172.17;88322;278;22629;-74
2023/09/08 08:16:56;;;;;;;0.20;0.10;;;;;;;20.10;43.37;101166.19;88160;282;136377;-69
2023/09/08 08:18:59;;;;;;;1.90;0.20;;;;;;;20.14;43.64;101164.02;88244;274;24068;-69
2023/09/08 08:21:03;;;;;;;0.20;0.10;;;;;;;20.15;43.45;101155.00;88863;275;136224;-73
2023/09/08 08:23:06;;;;;;;2.20;0.10;;;;;;;20.18;42.79;101157.30;88377;274;22527;-80
2023/09/08 08:25:08;;;;;;;3.40;0.10;;;;;;;20.17;42.71;101158.37;88679;276;137166;-76
2023/09/08 08:27:13;;;;;;;1.00;0.10;;;;;;;20.17;42.75;101155.05;88288;274;25597;-76
2023/09/08 08:29:15;;;;;;;1.40;0.10;;;;;;;20.16;42.93;101153.06;88462;275;136069;-81
2023/09/08 08:31:16;;;;;;;0.80;0.10;;;;;;;20.16;43.38;101151.77;89050;281;22535;-74
2023/09/08 08:33:19;;;;;;;0.80;0.10;;;;;;;20.19;43.00;101146.43;89067;278;136093;-74
2023/09/08 08:35:21;;;;;;;1.70;0.10;;;;;;;20.25;42.96;101148.21;88985;276;26661;-71
2023/09/08 08:37:23;;;;;;;0.50;0.10;;;;;;;20.31;42.86;101140.81;88090;275;136960;-74
2023/09/08 08:39:25;;;;;;;2.00;0.10;;;;;;;20.35;42.93;101139.63;88883;279;22536;-75
2023/09/08 08:41:29;;;;;;;1.50;0.40;;;;;;;20.34;42.90;101141.82;88952;278;136227;-80
2023/09/08 08:43:31;;;;;;;2.40;0.10;;;;;;;20.33;42.87;101140.21;89856;274;23048;-78
2023/09/08 08:45:35;;;;;;;0.40;0.10;;;;;;;20.28;42.96;101132.52;89347;274;136928;-77
2023/09/08 08:47:37;;;;;;;0.50;0.10;;;;;;;20.22;43.23;101131.85;89053;274;25117;-71
2023/09/08 08:49:43;;;;;;;0.30;0.00;;;;;;;20.20;43.64;101128.77;88595;278;136210;-77
2023/09/08 08:51:48;;;;;;;0.20;0.20;;;;;;;20.20;43.77;101125.52;88355;274;22534;-74
2023/09/08 08:53:49;;;;;;;1.60;0.10;;;;;;;20.22;43.82;101124.98;88445;273;136175;-76
2023/09/08 08:55:57;;;;;;;1.40;0.30;;;;;;;20.22;44.00;101125.19;88875;274;25257;-78
2023/09/08 08:58:03;;;;;;;1.90;0.10;;;;;;;20.21;43.91;101125.12;88384;283;136681;-82
2023/09/08 09:00:11;;;;;;;0.90;0.10;;;;;;;20.17;43.67;101128.20;88677;276;136165;-82
2023/09/08 09:02:14;;;;;;;0.70;0.10;;;;;;;20.09;44.09;101126.57;88829;279;26279;-82
2023/09/08 09:04:16;;;;;;;2.70;0.10;;;;;;;19.97;44.18;101116.97;88438;281;138585;-84
2023/09/08 09:06:18;;;;;;;0.20;0.10;;;;;;;20.02;44.51;101121.59;88708;275;25083;-83
2023/09/08 09:08:23;;;;;;;4.00;0.30;;;;;;;19.98;44.56;101126.64;88675;278;136164;-73
2023/09/08 09:10:25;;;;;;;1.10;0.10;;;;;;;19.96;44.43;101125.39;88224;283;23770;-80
2023/09/08 09:12:27;;;;;;;0.80;0.20;;;;;;;19.93;44.63;101122.94;88813;273;137118;-72
2023/09/08 09:14:33;;;;;;;2.30;0.10;;;;;;;19.96;44.80;101126.10;88382;282;22551;-74
2023/09/08 09:16:42;;;;;;;1.10;0.20;;;;;;;20.01;44.74;101123.80;88935;275;135922;-70
2023/09/08 09:18:59;;;;;;;0.40;0.20;;;;;;;20.00;44.10;101104.27;88770;280;24067;-74
2023/09/08 09:21:03;;;;;;;3.00;0.20;;;;;;;20.14;43.83;101116.41;89238;281;136223;-79
2023/09/08 09:23:05;;;;;;;0.20;0.10;;;;;;;20.18;43.92;101109.34;89089;277;25213;-80
2023/09/08 09:25:07;;;;;;;0.40;0.10;;;;;;;20.24;44.09;101111.95;88670;279;135914;-76
2023/09/08 09:27:11;;;;;;;1.10;0.20;;;;;;;20.24;43.63;101103.47;88839;280;25099;-81
2023/09/08 09:29:13;;;;;;;2.90;0.10;;;;;;;20.27;43.71;101095.00;88769;278;136205;-77
2023/09/08 09:31:15;;;;;;;3.40;0.30;;;;;;;20.35;43.50;101101.03;88785;274;22545;-72
2023/09/08 09:33:17;;;;;;;0.70;0.10;;;;;;;20.36;43.38;101096.72;88828;273;136879;-77
2023/09/08 09:35:19;;;;;;;4.10;0.30;;;;;;;20.33;43.57;101080.45;88151;275;22569;-84
2023/09/08 09:37:22;;;;;;;0.50;0.10;;;;;;;20.48;43.69;101087.61;89161;274;136206;-78